sensor_id;sensor_type;location;lat;lon;timestamp;P1;durP1;ratioP1;P2;durP2;ratioP2
20705;SDS011;10514;49.468;11.044;2023-11-19T00:00:26;5.93;;;3.90;;
20705;SDS011;10514;49.468;11.044;2023-11-19T00:02:52;5.00;;;3.50;;
20705;SDS011;10514;49.468;11.044;2023-11-19T00:05:18;5.20;;;3.60;;
20705;SDS011;10514;49.468;11.044;2023-11-19T00:07:44;4.63;;;3.47;;
20705;SDS011;10514;49.468;11.044;2023-11-19T00:10:10;5.03;;;3.73;;
20705;SDS011;10514;49.468;11.044;2023-11-19T00:12:46;5.77;;;3.73;;
20705;SDS011;10514;49.468;11.044;2023-11-19T00:15:13;5.13;;;3.63;;
20705;SDS011;10514;49.468;11.044;2023-11-19T00:17:43;5.03;;;3.47;;
20705;SDS011;10514;49.468;11.044;2023-11-19T00:20:11;4.60;;;3.57;;
20705;SDS011;10514;49.468;11.044;2023-11-19T00:22:36;5.80;;;3.70;;
20705;SDS011;10514;49.468;11.044;2023-11-19T00:25:02;6.77;;;3.93;;
20705;SDS011;10514;49.468;11.044;2023-11-19T00:27:28;5.27;;;3.87;;
20705;SDS011;10514;49.468;11.044;2023-11-19T00:29:55;6.13;;;3.87;;
20705;SDS011;10514;49.468;11.044;2023-11-19T00:32:21;4.60;;;3.37;;
20705;SDS011;10514;49.468;11.044;2023-11-19T00:34:47;5.77;;;3.53;;
20705;SDS011;10514;49.468;11.044;2023-11-19T00:37:16;5.23;;;3.90;;
20705;SDS011;10514;49.468;11.044;2023-11-19T00:39:42;5.80;;;4.10;;
20705;SDS011;10514;49.468;11.044;2023-11-19T00:42:08;7.50;;;4.00;;
20705;SDS011;10514;49.468;11.044;2023-11-19T00:44:35;6.23;;;3.60;;
20705;SDS011;10514;49.468;11.044;2023-11-19T00:47:01;5.43;;;3.77;;
20705;SDS011;10514;49.468;11.044;2023-11-19T00:49:27;5.97;;;3.97;;
20705;SDS011;10514;49.468;11.044;2023-11-19T00:51:53;5.17;;;3.80;;
20705;SDS011;10514;49.468;11.044;2023-11-19T00:54:19;5.27;;;3.60;;
20705;SDS011;10514;49.468;11.044;2023-11-19T00:56:45;5.70;;;3.80;;
20705;SDS011;10514;49.468;11.044;2023-11-19T00:59:11;6.50;;;4.03;;
20705;SDS011;10514;49.468;11.044;2023-11-19T01:01:37;5.10;;;3.97;;
20705;SDS011;10514;49.468;11.044;2023-11-19T01:04:03;7.03;;;4.23;;
20705;SDS011;10514;49.468;11.044;2023-11-19T01:06:29;6.53;;;4.23;;
20705;SDS011;10514;49.468;11.044;2023-11-19T01:08:56;5.87;;;4.03;;
20705;SDS011;10514;49.468;11.044;2023-11-19T01:11:22;5.70;;;3.93;;
20705;SDS011;10514;49.468;11.044;2023-11-19T01:13:48;5.40;;;3.90;;
20705;SDS011;10514;49.468;11.044;2023-11-19T01:16:14;5.93;;;4.07;;
20705;SDS011;10514;49.468;11.044;2023-11-19T01:18:40;6.27;;;4.23;;
20705;SDS011;10514;49.468;11.044;2023-11-19T01:21:05;5.90;;;3.93;;
20705;SDS011;10514;49.468;11.044;2023-11-19T01:23:31;5.73;;;4.40;;
20705;SDS011;10514;49.468;11.044;2023-11-19T01:25:57;7.37;;;4.27;;
20705;SDS011;10514;49.468;11.044;2023-11-19T01:28:23;5.10;;;3.73;;
20705;SDS011;10514;49.468;11.044;2023-11-19T01:30:52;4.70;;;3.70;;
20705;SDS011;10514;49.468;11.044;2023-11-19T01:33:18;5.93;;;3.97;;
20705;SDS011;10514;49.468;11.044;2023-11-19T01:35:44;6.93;;;4.13;;
20705;SDS011;10514;49.468;11.044;2023-11-19T01:38:10;6.17;;;4.23;;
20705;SDS011;10514;49.468;11.044;2023-11-19T01:40:36;5.47;;;4.13;;
20705;SDS011;10514;49.468;11.044;2023-11-19T01:43:02;5.60;;;4.10;;
20705;SDS011;10514;49.468;11.044;2023-11-19T01:45:29;5.40;;;3.63;;
20705;SDS011;10514;49.468;11.044;2023-11-19T01:47:59;4.83;;;3.70;;
20705;SDS011;10514;49.468;11.044;2023-11-19T01:50:26;4.73;;;3.80;;
20705;SDS011;10514;49.468;11.044;2023-11-19T01:52:53;5.60;;;4.03;;
20705;SDS011;10514;49.468;11.044;2023-11-19T01:55:20;5.13;;;3.63;;
20705;SDS011;10514;49.468;11.044;2023-11-19T01:57:48;5.50;;;4.07;;
20705;SDS011;10514;49.468;11.044;2023-11-19T02:00:14;5.50;;;4.10;;
20705;SDS011;10514;49.468;11.044;2023-11-19T02:02:41;5.27;;;4.00;;
20705;SDS011;10514;49.468;11.044;2023-11-19T02:05:08;5.50;;;4.10;;
20705;SDS011;10514;49.468;11.044;2023-11-19T02:07:34;5.03;;;3.80;;
20705;SDS011;10514;49.468;11.044;2023-11-19T02:10:00;5.87;;;4.37;;
20705;SDS011;10514;49.468;11.044;2023-11-19T02:12:30;4.97;;;3.90;;
20705;SDS011;10514;49.468;11.044;2023-11-19T02:15:00;5.80;;;4.13;;
20705;SDS011;10514;49.468;11.044;2023-11-19T02:17:27;6.47;;;4.33;;
20705;SDS011;10514;49.468;11.044;2023-11-19T02:19:56;5.80;;;4.13;;
20705;SDS011;10514;49.468;11.044;2023-11-19T02:22:22;5.90;;;4.50;;
20705;SDS011;10514;49.468;11.044;2023-11-19T02:24:48;5.60;;;4.07;;
20705;SDS011;10514;49.468;11.044;2023-11-19T02:27:22;6.63;;;4.50;;
20705;SDS011;10514;49.468;11.044;2023-11-19T02:29:54;6.33;;;4.20;;
20705;SDS011;10514;49.468;11.044;2023-11-19T02:32:20;6.97;;;4.90;;
20705;SDS011;10514;49.468;11.044;2023-11-19T02:34:46;7.00;;;4.70;;
20705;SDS011;10514;49.468;11.044;2023-11-19T02:37:12;6.57;;;4.60;;
20705;SDS011;10514;49.468;11.044;2023-11-19T02:39:39;7.43;;;4.87;;
20705;SDS011;10514;49.468;11.044;2023-11-19T02:42:06;6.33;;;4.77;;
20705;SDS011;10514;49.468;11.044;2023-11-19T02:44:33;7.07;;;4.63;;
20705;SDS011;10514;49.468;11.044;2023-11-19T02:46:59;6.47;;;4.80;;
20705;SDS011;10514;49.468;11.044;2023-11-19T02:49:25;6.67;;;4.83;;
20705;SDS011;10514;49.468;11.044;2023-11-19T02:51:51;7.07;;;4.87;;
20705;SDS011;10514;49.468;11.044;2023-11-19T02:54:17;6.10;;;4.70;;
20705;SDS011;10514;49.468;11.044;2023-11-19T02:56:43;6.20;;;4.63;;
20705;SDS011;10514;49.468;11.044;2023-11-19T02:59:09;7.77;;;5.33;;
20705;SDS011;10514;49.468;11.044;2023-11-19T03:01:51;8.20;;;4.83;;
20705;SDS011;10514;49.468;11.044;2023-11-19T03:04:17;7.27;;;4.90;;
20705;SDS011;10514;49.468;11.044;2023-11-19T03:06:45;8.27;;;5.47;;
20705;SDS011;10514;49.468;11.044;2023-11-19T03:09:11;8.47;;;5.23;;
20705;SDS011;10514;49.468;11.044;2023-11-19T03:11:37;7.60;;;5.20;;
20705;SDS011;10514;49.468;11.044;2023-11-19T03:14:03;8.10;;;5.63;;
20705;SDS011;10514;49.468;11.044;2023-11-19T03:16:29;7.03;;;5.20;;
20705;SDS011;10514;49.468;11.044;2023-11-19T03:18:55;7.83;;;5.53;;
20705;SDS011;10514;49.468;11.044;2023-11-19T03:21:28;8.33;;;5.97;;
20705;SDS011;10514;49.468;11.044;2023-11-19T03:23:54;7.90;;;5.97;;
20705;SDS011;10514;49.468;11.044;2023-11-19T03:26:20;8.83;;;6.47;;
20705;SDS011;10514;49.468;11.044;2023-11-19T03:28:47;9.00;;;5.90;;
20705;SDS011;10514;49.468;11.044;2023-11-19T03:31:13;10.03;;;6.60;;
20705;SDS011;10514;49.468;11.044;2023-11-19T03:33:39;7.83;;;5.97;;
20705;SDS011;10514;49.468;11.044;2023-11-19T03:36:05;9.87;;;5.57;;
20705;SDS011;10514;49.468;11.044;2023-11-19T03:38:32;9.53;;;6.43;;
20705;SDS011;10514;49.468;11.044;2023-11-19T03:40:58;8.37;;;5.77;;
20705;SDS011;10514;49.468;11.044;2023-11-19T03:43:24;8.23;;;5.83;;
20705;SDS011;10514;49.468;11.044;2023-11-19T03:45:50;8.83;;;5.73;;
20705;SDS011;10514;49.468;11.044;2023-11-19T03:48:16;9.00;;;6.30;;
20705;SDS011;10514;49.468;11.044;2023-11-19T03:50:42;8.40;;;6.10;;
20705;SDS011;10514;49.468;11.044;2023-11-19T03:53:08;8.47;;;6.23;;
20705;SDS011;10514;49.468;11.044;2023-11-19T03:55:34;7.63;;;5.53;;
20705;SDS011;10514;49.468;11.044;2023-11-19T03:57:59;9.90;;;6.83;;
20705;SDS011;10514;49.468;11.044;2023-11-19T04:00:25;11.40;;;6.40;;
20705;SDS011;10514;49.468;11.044;2023-11-19T04:02:52;9.57;;;6.73;;
20705;SDS011;10514;49.468;11.044;2023-11-19T04:05:18;9.13;;;6.33;;
20705;SDS011;10514;49.468;11.044;2023-11-19T04:07:44;9.50;;;6.53;;
20705;SDS011;10514;49.468;11.044;2023-11-19T04:10:10;10.27;;;6.23;;
20705;SDS011;10514;49.468;11.044;2023-11-19T04:12:36;9.63;;;6.97;;
20705;SDS011;10514;49.468;11.044;2023-11-19T04:15:02;10.40;;;6.87;;
20705;SDS011;10514;49.468;11.044;2023-11-19T04:17:28;9.60;;;6.80;;
20705;SDS011;10514;49.468;11.044;2023-11-19T04:19:53;8.67;;;6.23;;
20705;SDS011;10514;49.468;11.044;2023-11-19T04:22:20;10.17;;;6.63;;
20705;SDS011;10514;49.468;11.044;2023-11-19T04:24:46;11.07;;;7.20;;
20705;SDS011;10514;49.468;11.044;2023-11-19T04:27:12;10.67;;;7.30;;
20705;SDS011;10514;49.468;11.044;2023-11-19T04:29:38;10.90;;;7.83;;
20705;SDS011;10514;49.468;11.044;2023-11-19T04:32:04;12.83;;;8.50;;
20705;SDS011;10514;49.468;11.044;2023-11-19T04:34:30;10.80;;;7.50;;
20705;SDS011;10514;49.468;11.044;2023-11-19T04:36:56;12.07;;;8.20;;
20705;SDS011;10514;49.468;11.044;2023-11-19T04:39:22;11.80;;;7.80;;
20705;SDS011;10514;49.468;11.044;2023-11-19T04:41:49;10.53;;;7.20;;
20705;SDS011;10514;49.468;11.044;2023-11-19T04:44:15;11.00;;;7.47;;
20705;SDS011;10514;49.468;11.044;2023-11-19T04:46:41;9.93;;;7.23;;
20705;SDS011;10514;49.468;11.044;2023-11-19T04:49:09;10.83;;;8.27;;
20705;SDS011;10514;49.468;11.044;2023-11-19T04:51:39;11.20;;;7.30;;
20705;SDS011;10514;49.468;11.044;2023-11-19T04:54:08;11.27;;;7.80;;
20705;SDS011;10514;49.468;11.044;2023-11-19T04:56:35;11.43;;;7.53;;
20705;SDS011;10514;49.468;11.044;2023-11-19T04:59:02;11.60;;;7.53;;
20705;SDS011;10514;49.468;11.044;2023-11-19T05:01:28;11.43;;;7.97;;
20705;SDS011;10514;49.468;11.044;2023-11-19T05:03:53;10.97;;;7.50;;
20705;SDS011;10514;49.468;11.044;2023-11-19T05:06:19;10.67;;;7.23;;
20705;SDS011;10514;49.468;11.044;2023-11-19T05:08:45;10.77;;;7.03;;
20705;SDS011;10514;49.468;11.044;2023-11-19T05:11:11;10.87;;;7.50;;
20705;SDS011;10514;49.468;11.044;2023-11-19T05:13:43;11.10;;;7.47;;
20705;SDS011;10514;49.468;11.044;2023-11-19T05:16:10;11.33;;;7.80;;
20705;SDS011;10514;49.468;11.044;2023-11-19T05:18:36;11.43;;;7.47;;
20705;SDS011;10514;49.468;11.044;2023-11-19T05:21:02;11.03;;;7.43;;
20705;SDS011;10514;49.468;11.044;2023-11-19T05:23:27;11.30;;;7.93;;
20705;SDS011;10514;49.468;11.044;2023-11-19T05:25:53;11.47;;;7.30;;
20705;SDS011;10514;49.468;11.044;2023-11-19T05:28:20;10.83;;;8.10;;
20705;SDS011;10514;49.468;11.044;2023-11-19T05:30:45;12.60;;;7.73;;
20705;SDS011;10514;49.468;11.044;2023-11-19T05:33:12;12.47;;;7.83;;
20705;SDS011;10514;49.468;11.044;2023-11-19T05:35:38;10.60;;;7.77;;
20705;SDS011;10514;49.468;11.044;2023-11-19T05:38:04;11.67;;;7.70;;
20705;SDS011;10514;49.468;11.044;2023-11-19T05:40:31;12.23;;;7.80;;
20705;SDS011;10514;49.468;11.044;2023-11-19T05:42:56;11.37;;;7.40;;
20705;SDS011;10514;49.468;11.044;2023-11-19T05:45:22;12.67;;;7.60;;
20705;SDS011;10514;49.468;11.044;2023-11-19T05:47:48;10.43;;;7.10;;
20705;SDS011;10514;49.468;11.044;2023-11-19T05:50:14;10.37;;;7.40;;
20705;SDS011;10514;49.468;11.044;2023-11-19T05:52:40;12.53;;;8.00;;
20705;SDS011;10514;49.468;11.044;2023-11-19T05:55:06;11.63;;;8.03;;
20705;SDS011;10514;49.468;11.044;2023-11-19T05:57:36;11.90;;;8.00;;
20705;SDS011;10514;49.468;11.044;2023-11-19T06:00:02;11.37;;;7.43;;
20705;SDS011;10514;49.468;11.044;2023-11-19T06:02:32;11.37;;;8.17;;
20705;SDS011;10514;49.468;11.044;2023-11-19T06:04:58;11.27;;;7.97;;
20705;SDS011;10514;49.468;11.044;2023-11-19T06:07:24;12.20;;;7.97;;
20705;SDS011;10514;49.468;11.044;2023-11-19T06:09:50;11.17;;;7.57;;
20705;SDS011;10514;49.468;11.044;2023-11-19T06:12:15;10.77;;;7.63;;
20705;SDS011;10514;49.468;11.044;2023-11-19T06:14:41;11.10;;;8.00;;
20705;SDS011;10514;49.468;11.044;2023-11-19T06:17:07;10.43;;;7.20;;
20705;SDS011;10514;49.468;11.044;2023-11-19T06:19:33;10.00;;;6.70;;
20705;SDS011;10514;49.468;11.044;2023-11-19T06:21:59;10.57;;;7.23;;
20705;SDS011;10514;49.468;11.044;2023-11-19T06:24:25;9.87;;;6.80;;
20705;SDS011;10514;49.468;11.044;2023-11-19T06:26:51;9.80;;;6.33;;
20705;SDS011;10514;49.468;11.044;2023-11-19T06:29:17;10.13;;;6.63;;
20705;SDS011;10514;49.468;11.044;2023-11-19T06:31:44;8.90;;;6.87;;
20705;SDS011;10514;49.468;11.044;2023-11-19T06:34:13;9.53;;;6.30;;
20705;SDS011;10514;49.468;11.044;2023-11-19T06:36:39;9.97;;;6.60;;
20705;SDS011;10514;49.468;11.044;2023-11-19T06:39:05;8.87;;;6.10;;
20705;SDS011;10514;49.468;11.044;2023-11-19T06:41:31;9.47;;;6.20;;
20705;SDS011;10514;49.468;11.044;2023-11-19T06:43:57;8.53;;;5.60;;
20705;SDS011;10514;49.468;11.044;2023-11-19T06:46:24;8.10;;;5.60;;
20705;SDS011;10514;49.468;11.044;2023-11-19T06:48:50;8.27;;;5.77;;
20705;SDS011;10514;49.468;11.044;2023-11-19T06:51:16;8.13;;;5.80;;
20705;SDS011;10514;49.468;11.044;2023-11-19T06:53:42;8.50;;;5.63;;
20705;SDS011;10514;49.468;11.044;2023-11-19T06:56:19;9.03;;;5.83;;
20705;SDS011;10514;49.468;11.044;2023-11-19T06:58:48;9.17;;;5.73;;
20705;SDS011;10514;49.468;11.044;2023-11-19T07:01:18;8.13;;;5.60;;
20705;SDS011;10514;49.468;11.044;2023-11-19T07:03:44;9.37;;;5.90;;
20705;SDS011;10514;49.468;11.044;2023-11-19T07:06:11;7.03;;;4.90;;
20705;SDS011;10514;49.468;11.044;2023-11-19T07:08:38;7.93;;;4.80;;
20705;SDS011;10514;49.468;11.044;2023-11-19T07:11:04;8.17;;;4.70;;
20705;SDS011;10514;49.468;11.044;2023-11-19T07:13:29;8.37;;;4.90;;
20705;SDS011;10514;49.468;11.044;2023-11-19T07:15:58;6.20;;;4.20;;
20705;SDS011;10514;49.468;11.044;2023-11-19T07:18:24;6.70;;;4.37;;
20705;SDS011;10514;49.468;11.044;2023-11-19T07:20:50;10.03;;;5.07;;
20705;SDS011;10514;49.468;11.044;2023-11-19T07:23:16;6.80;;;4.60;;
20705;SDS011;10514;49.468;11.044;2023-11-19T07:25:44;8.07;;;5.73;;
20705;SDS011;10514;49.468;11.044;2023-11-19T07:28:11;6.78;;;4.53;;
20705;SDS011;10514;49.468;11.044;2023-11-19T07:30:41;6.63;;;4.00;;
20705;SDS011;10514;49.468;11.044;2023-11-19T07:33:07;5.30;;;3.20;;
20705;SDS011;10514;49.468;11.044;2023-11-19T07:35:33;5.67;;;2.53;;
20705;SDS011;10514;49.468;11.044;2023-11-19T07:37:59;3.83;;;2.17;;
20705;SDS011;10514;49.468;11.044;2023-11-19T07:40:25;3.77;;;2.00;;
20705;SDS011;10514;49.468;11.044;2023-11-19T07:42:51;3.03;;;1.70;;
20705;SDS011;10514;49.468;11.044;2023-11-19T07:45:17;1.83;;;1.27;;
20705;SDS011;10514;49.468;11.044;2023-11-19T07:47:43;3.00;;;1.30;;
20705;SDS011;10514;49.468;11.044;2023-11-19T07:50:09;1.40;;;1.00;;
20705;SDS011;10514;49.468;11.044;2023-11-19T07:52:35;1.27;;;0.90;;
20705;SDS011;10514;49.468;11.044;2023-11-19T07:55:01;1.00;;;0.83;;
20705;SDS011;10514;49.468;11.044;2023-11-19T07:57:27;1.30;;;0.87;;
20705;SDS011;10514;49.468;11.044;2023-11-19T07:59:55;2.60;;;1.83;;
20705;SDS011;10514;49.468;11.044;2023-11-19T08:02:21;1.70;;;1.50;;
20705;SDS011;10514;49.468;11.044;2023-11-19T08:04:48;1.20;;;1.05;;
20705;SDS011;10514;49.468;11.044;2023-11-19T08:07:16;2.00;;;1.70;;
20705;SDS011;10514;49.468;11.044;2023-11-19T08:09:42;5.38;;;3.85;;
20705;SDS011;10514;49.468;11.044;2023-11-19T08:12:08;6.83;;;4.77;;
20705;SDS011;10514;49.468;11.044;2023-11-19T08:14:35;3.30;;;2.97;;
20705;SDS011;10514;49.468;11.044;2023-11-19T08:17:01;1.90;;;1.50;;
20705;SDS011;10514;49.468;11.044;2023-11-19T08:19:27;1.83;;;1.70;;
20705;SDS011;10514;49.468;11.044;2023-11-19T08:21:53;3.58;;;1.05;;
20705;SDS011;10514;49.468;11.044;2023-11-19T08:24:19;1.17;;;1.05;;
20705;SDS011;10514;49.468;11.044;2023-11-19T08:26:45;1.05;;;0.90;;
20705;SDS011;10514;49.468;11.044;2023-11-19T08:29:10;3.60;;;1.75;;
20705;SDS011;10514;49.468;11.044;2023-11-19T08:31:36;2.60;;;1.50;;
20705;SDS011;10514;49.468;11.044;2023-11-19T08:34:02;1.73;;;1.20;;
20705;SDS011;10514;49.468;11.044;2023-11-19T08:36:28;4.35;;;1.98;;
20705;SDS011;10514;49.468;11.044;2023-11-19T08:38:54;3.50;;;2.65;;
20705;SDS011;10514;49.468;11.044;2023-11-19T08:41:20;2.25;;;2.00;;
20705;SDS011;10514;49.468;11.044;2023-11-19T08:43:46;3.28;;;1.85;;
20705;SDS011;10514;49.468;11.044;2023-11-19T08:46:12;5.65;;;1.92;;
20705;SDS011;10514;49.468;11.044;2023-11-19T08:48:38;3.88;;;1.60;;
20705;SDS011;10514;49.468;11.044;2023-11-19T08:51:04;2.38;;;1.70;;
20705;SDS011;10514;49.468;11.044;2023-11-19T08:53:30;3.30;;;1.70;;
20705;SDS011;10514;49.468;11.044;2023-11-19T08:55:56;3.13;;;1.60;;
20705;SDS011;10514;49.468;11.044;2023-11-19T08:58:22;2.13;;;1.50;;
20705;SDS011;10514;49.468;11.044;2023-11-19T09:00:48;3.53;;;1.50;;
20705;SDS011;10514;49.468;11.044;2023-11-19T09:03:14;3.05;;;1.40;;
20705;SDS011;10514;49.468;11.044;2023-11-19T09:05:39;3.17;;;1.80;;
20705;SDS011;10514;49.468;11.044;2023-11-19T09:08:06;4.10;;;2.00;;
20705;SDS011;10514;49.468;11.044;2023-11-19T09:10:32;3.10;;;1.60;;
20705;SDS011;10514;49.468;11.044;2023-11-19T09:12:58;2.45;;;1.55;;
20705;SDS011;10514;49.468;11.044;2023-11-19T09:15:24;2.95;;;1.90;;
20705;SDS011;10514;49.468;11.044;2023-11-19T09:17:50;2.75;;;1.55;;
20705;SDS011;10514;49.468;11.044;2023-11-19T09:20:16;2.83;;;1.60;;
20705;SDS011;10514;49.468;11.044;2023-11-19T09:22:42;1.95;;;1.13;;
20705;SDS011;10514;49.468;11.044;2023-11-19T09:25:08;2.72;;;1.27;;
20705;SDS011;10514;49.468;11.044;2023-11-19T09:27:34;4.50;;;1.90;;
20705;SDS011;10514;49.468;11.044;2023-11-19T09:30:00;2.35;;;1.80;;
20705;SDS011;10514;49.468;11.044;2023-11-19T09:32:26;2.38;;;1.70;;
20705;SDS011;10514;49.468;11.044;2023-11-19T09:34:51;2.08;;;0.93;;
20705;SDS011;10514;49.468;11.044;2023-11-19T09:37:17;1.08;;;0.90;;
20705;SDS011;10514;49.468;11.044;2023-11-19T09:39:42;1.45;;;0.98;;
20705;SDS011;10514;49.468;11.044;2023-11-19T09:42:09;3.38;;;0.90;;
20705;SDS011;10514;49.468;11.044;2023-11-19T09:44:35;2.20;;;0.90;;
20705;SDS011;10514;49.468;11.044;2023-11-19T09:47:05;2.47;;;0.60;;
20705;SDS011;10514;49.468;11.044;2023-11-19T09:49:32;3.20;;;1.48;;
20705;SDS011;10514;49.468;11.044;2023-11-19T09:52:00;2.97;;;0.80;;
20705;SDS011;10514;49.468;11.044;2023-11-19T09:54:27;3.05;;;0.90;;
20705;SDS011;10514;49.468;11.044;2023-11-19T09:56:53;1.73;;;1.15;;
20705;SDS011;10514;49.468;11.044;2023-11-19T09:59:25;1.38;;;0.88;;
20705;SDS011;10514;49.468;11.044;2023-11-19T10:01:51;2.70;;;0.80;;
20705;SDS011;10514;49.468;11.044;2023-11-19T10:04:17;2.13;;;0.90;;
20705;SDS011;10514;49.468;11.044;2023-11-19T10:06:44;1.30;;;0.90;;
20705;SDS011;10514;49.468;11.044;2023-11-19T10:09:11;1.73;;;0.88;;
20705;SDS011;10514;49.468;11.044;2023-11-19T10:11:37;2.03;;;1.10;;
20705;SDS011;10514;49.468;11.044;2023-11-19T10:14:03;1.92;;;0.88;;
20705;SDS011;10514;49.468;11.044;2023-11-19T10:16:29;3.22;;;1.20;;
20705;SDS011;10514;49.468;11.044;2023-11-19T10:18:58;1.35;;;0.77;;
20705;SDS011;10514;49.468;11.044;2023-11-19T10:21:24;2.30;;;0.98;;
20705;SDS011;10514;49.468;11.044;2023-11-19T10:23:51;1.75;;;0.60;;
20705;SDS011;10514;49.468;11.044;2023-11-19T10:26:20;1.30;;;0.77;;
20705;SDS011;10514;49.468;11.044;2023-11-19T10:28:46;2.45;;;1.10;;
20705;SDS011;10514;49.468;11.044;2023-11-19T10:31:13;5.13;;;1.80;;
20705;SDS011;10514;49.468;11.044;2023-11-19T10:33:43;4.13;;;1.52;;
20705;SDS011;10514;49.468;11.044;2023-11-19T10:36:10;2.47;;;1.10;;
20705;SDS011;10514;49.468;11.044;2023-11-19T10:38:36;2.38;;;0.70;;
20705;SDS011;10514;49.468;11.044;2023-11-19T10:41:03;3.00;;;0.90;;
20705;SDS011;10514;49.468;11.044;2023-11-19T10:43:30;2.30;;;1.00;;
20705;SDS011;10514;49.468;11.044;2023-11-19T10:46:09;1.85;;;0.73;;
20705;SDS011;10514;49.468;11.044;2023-11-19T10:48:36;2.40;;;0.82;;
20705;SDS011;10514;49.468;11.044;2023-11-19T10:51:01;2.00;;;0.80;;
20705;SDS011;10514;49.468;11.044;2023-11-19T10:53:32;2.92;;;0.77;;
20705;SDS011;10514;49.468;11.044;2023-11-19T10:56:01;1.45;;;0.60;;
20705;SDS011;10514;49.468;11.044;2023-11-19T10:58:29;1.15;;;0.70;;
20705;SDS011;10514;49.468;11.044;2023-11-19T11:00:58;1.40;;;0.90;;
20705;SDS011;10514;49.468;11.044;2023-11-19T11:03:29;0.83;;;0.70;;
20705;SDS011;10514;49.468;11.044;2023-11-19T11:06:04;1.42;;;1.00;;
20705;SDS011;10514;49.468;11.044;2023-11-19T11:08:30;1.75;;;1.20;;
20705;SDS011;10514;49.468;11.044;2023-11-19T11:10:57;2.70;;;0.90;;
20705;SDS011;10514;49.468;11.044;2023-11-19T11:13:24;2.55;;;0.80;;
20705;SDS011;10514;49.468;11.044;2023-11-19T11:15:54;4.43;;;1.40;;
20705;SDS011;10514;49.468;11.044;2023-11-19T11:18:23;3.00;;;1.52;;
20705;SDS011;10514;49.468;11.044;2023-11-19T11:20:50;1.35;;;0.80;;
20705;SDS011;10514;49.468;11.044;2023-11-19T11:28:42;3.10;;;0.90;;
20705;SDS011;10514;49.468;11.044;2023-11-19T11:34:39;2.70;;;0.93;;
20705;SDS011;10514;49.468;11.044;2023-11-19T11:37:21;1.35;;;0.80;;
20705;SDS011;10514;49.468;11.044;2023-11-19T11:39:57;2.65;;;0.90;;
20705;SDS011;10514;49.468;11.044;2023-11-19T11:42:30;2.65;;;0.82;;
20705;SDS011;10514;49.468;11.044;2023-11-19T11:45:03;2.05;;;0.80;;
20705;SDS011;10514;49.468;11.044;2023-11-19T11:50:08;2.53;;;0.68;;
20705;SDS011;10514;49.468;11.044;2023-11-19T11:57:55;2.67;;;0.98;;
20705;SDS011;10514;49.468;11.044;2023-11-19T12:00:27;2.38;;;1.17;;
20705;SDS011;10514;49.468;11.044;2023-11-19T12:02:55;3.58;;;0.85;;
20705;SDS011;10514;49.468;11.044;2023-11-19T12:05:22;1.60;;;0.80;;
20705;SDS011;10514;49.468;11.044;2023-11-19T12:08:00;2.42;;;0.80;;
20705;SDS011;10514;49.468;11.044;2023-11-19T12:10:31;1.55;;;0.90;;
20705;SDS011;10514;49.468;11.044;2023-11-19T12:13:02;3.33;;;1.00;;
20705;SDS011;10514;49.468;11.044;2023-11-19T12:15:31;2.90;;;1.27;;
20705;SDS011;10514;49.468;11.044;2023-11-19T12:17:58;2.08;;;0.90;;
20705;SDS011;10514;49.468;11.044;2023-11-19T12:20:24;1.80;;;1.00;;
20705;SDS011;10514;49.468;11.044;2023-11-19T12:22:51;4.25;;;1.17;;
20705;SDS011;10514;49.468;11.044;2023-11-19T12:25:18;2.80;;;1.30;;
20705;SDS011;10514;49.468;11.044;2023-11-19T12:27:45;3.05;;;1.48;;
20705;SDS011;10514;49.468;11.044;2023-11-19T12:30:12;4.78;;;1.40;;
20705;SDS011;10514;49.468;11.044;2023-11-19T12:32:39;3.40;;;1.27;;
20705;SDS011;10514;49.468;11.044;2023-11-19T12:35:09;2.20;;;1.23;;
20705;SDS011;10514;49.468;11.044;2023-11-19T12:40:11;2.25;;;1.05;;
20705;SDS011;10514;49.468;11.044;2023-11-19T12:42:47;3.90;;;1.10;;
20705;SDS011;10514;49.468;11.044;2023-11-19T12:45:13;3.38;;;1.10;;
20705;SDS011;10514;49.468;11.044;2023-11-19T12:47:40;2.00;;;1.00;;
20705;SDS011;10514;49.468;11.044;2023-11-19T12:50:06;4.47;;;1.00;;
20705;SDS011;10514;49.468;11.044;2023-11-19T12:52:34;1.98;;;0.98;;
20705;SDS011;10514;49.468;11.044;2023-11-19T12:55:03;6.53;;;1.27;;
20705;SDS011;10514;49.468;11.044;2023-11-19T12:57:37;2.05;;;1.08;;
20705;SDS011;10514;49.468;11.044;2023-11-19T13:00:07;3.88;;;1.60;;
20705;SDS011;10514;49.468;11.044;2023-11-19T13:02:49;2.53;;;1.20;;
20705;SDS011;10514;49.468;11.044;2023-11-19T13:05:23;2.67;;;1.33;;
20705;SDS011;10514;49.468;11.044;2023-11-19T13:08:00;1.50;;;0.90;;
20705;SDS011;10514;49.468;11.044;2023-11-19T13:10:33;3.22;;;1.10;;
20705;SDS011;10514;49.468;11.044;2023-11-19T13:13:14;3.28;;;1.10;;
20705;SDS011;10514;49.468;11.044;2023-11-19T13:15:41;2.80;;;1.05;;
20705;SDS011;10514;49.468;11.044;2023-11-19T13:18:07;3.88;;;1.10;;
20705;SDS011;10514;49.468;11.044;2023-11-19T13:20:33;2.08;;;0.93;;
20705;SDS011;10514;49.468;11.044;2023-11-19T13:22:59;3.20;;;1.17;;
20705;SDS011;10514;49.468;11.044;2023-11-19T13:25:27;2.30;;;1.00;;
20705;SDS011;10514;49.468;11.044;2023-11-19T13:27:53;2.72;;;0.93;;
20705;SDS011;10514;49.468;11.044;2023-11-19T13:30:20;1.70;;;1.05;;
20705;SDS011;10514;49.468;11.044;2023-11-19T13:32:47;3.45;;;0.82;;
20705;SDS011;10514;49.468;11.044;2023-11-19T13:35:13;1.75;;;0.80;;
20705;SDS011;10514;49.468;11.044;2023-11-19T13:37:39;5.90;;;0.90;;
20705;SDS011;10514;49.468;11.044;2023-11-19T13:40:09;3.03;;;1.00;;
20705;SDS011;10514;49.468;11.044;2023-11-19T13:42:38;3.83;;;1.30;;
20705;SDS011;10514;49.468;11.044;2023-11-19T13:45:08;1.17;;;0.70;;
20705;SDS011;10514;49.468;11.044;2023-11-19T13:47:41;1.15;;;0.80;;
20705;SDS011;10514;49.468;11.044;2023-11-19T13:50:12;2.53;;;0.80;;
20705;SDS011;10514;49.468;11.044;2023-11-19T13:52:39;2.70;;;0.80;;
20705;SDS011;10514;49.468;11.044;2023-11-19T13:55:06;1.27;;;0.80;;
20705;SDS011;10514;49.468;11.044;2023-11-19T13:57:33;3.45;;;1.00;;
20705;SDS011;10514;49.468;11.044;2023-11-19T14:00:00;1.10;;;0.70;;
20705;SDS011;10514;49.468;11.044;2023-11-19T14:02:30;4.30;;;0.95;;
20705;SDS011;10514;49.468;11.044;2023-11-19T14:04:56;2.38;;;0.88;;
20705;SDS011;10514;49.468;11.044;2023-11-19T14:07:22;1.85;;;0.88;;
20705;SDS011;10514;49.468;11.044;2023-11-19T14:09:47;3.92;;;0.90;;
20705;SDS011;10514;49.468;11.044;2023-11-19T14:12:13;3.45;;;0.95;;
20705;SDS011;10514;49.468;11.044;2023-11-19T14:14:38;3.35;;;0.93;;
20705;SDS011;10514;49.468;11.044;2023-11-19T14:17:05;1.42;;;0.80;;
20705;SDS011;10514;49.468;11.044;2023-11-19T14:19:31;5.25;;;0.80;;
20705;SDS011;10514;49.468;11.044;2023-11-19T14:21:57;2.83;;;0.73;;
20705;SDS011;10514;49.468;11.044;2023-11-19T14:24:23;2.00;;;0.82;;
20705;SDS011;10514;49.468;11.044;2023-11-19T14:26:49;1.40;;;0.70;;
20705;SDS011;10514;49.468;11.044;2023-11-19T14:29:16;3.65;;;1.00;;
20705;SDS011;10514;49.468;11.044;2023-11-19T14:31:42;2.40;;;1.10;;
20705;SDS011;10514;49.468;11.044;2023-11-19T14:34:08;2.92;;;0.95;;
20705;SDS011;10514;49.468;11.044;2023-11-19T14:36:34;3.30;;;0.88;;
20705;SDS011;10514;49.468;11.044;2023-11-19T14:38:59;2.80;;;1.08;;
20705;SDS011;10514;49.468;11.044;2023-11-19T14:41:25;1.15;;;0.73;;
20705;SDS011;10514;49.468;11.044;2023-11-19T14:43:51;1.92;;;0.80;;
20705;SDS011;10514;49.468;11.044;2023-11-19T14:46:17;3.88;;;0.82;;
20705;SDS011;10514;49.468;11.044;2023-11-19T14:48:43;2.28;;;0.77;;
20705;SDS011;10514;49.468;11.044;2023-11-19T14:51:09;3.35;;;1.20;;